createdAt,value
2017-11-15T00:00:02.977Z,22.87
2017-11-15T00:02:30.493Z,22.00
2017-11-15T00:04:58.004Z,19.00
2017-11-15T00:07:25.524Z,21.00
2017-11-15T00:09:53.801Z,23.33
2017-11-15T00:12:22.095Z,21.73
2017-11-15T00:14:49.603Z,23.90
2017-11-15T00:17:17.134Z,22.27
2017-11-15T00:19:44.639Z,23.30
2017-11-15T00:22:24.767Z,22.83
2017-11-15T00:24:52.272Z,23.00
2017-11-15T00:27:19.795Z,21.43
2017-11-15T00:29:47.312Z,20.80
2017-11-15T00:32:14.840Z,19.33
2017-11-15T00:34:43.115Z,18.60
2017-11-15T00:37:11.409Z,17.77
2017-11-15T00:39:38.921Z,18.80
2017-11-15T00:42:06.449Z,18.30
2017-11-15T00:44:33.957Z,19.37
2017-11-15T00:47:02.251Z,17.77
2017-11-15T00:49:29.755Z,18.57
2017-11-15T00:51:57.275Z,17.07
2017-11-15T00:54:24.784Z,17.77
2017-11-15T00:56:52.348Z,17.77
2017-11-15T00:59:19.853Z,18.50
2017-11-15T01:01:47.364Z,17.27
2017-11-15T01:04:14.893Z,17.97
2017-11-15T01:06:42.399Z,15.90
2017-11-15T01:09:10.692Z,15.07
2017-11-15T01:11:38.200Z,17.10
2017-11-15T01:14:05.725Z,15.70
2017-11-15T01:16:33.704Z,16.03
2017-11-15T01:19:01.231Z,16.63
2017-11-15T01:21:29.502Z,17.10
2017-11-15T01:23:57.794Z,16.90
2017-11-15T01:26:25.300Z,15.53
2017-11-15T01:28:52.861Z,16.53
2017-11-15T01:31:20.378Z,18.70
2017-11-15T01:33:47.905Z,16.20
2017-11-15T01:36:16.176Z,17.23
2017-11-15T01:38:44.468Z,16.60
2017-11-15T01:41:12.736Z,17.53
2017-11-15T01:43:41.028Z,16.70
2017-11-15T01:46:08.551Z,16.63
2017-11-15T01:48:36.076Z,18.87
2017-11-15T01:51:03.579Z,17.00
2017-11-15T01:53:31.873Z,18.40
2017-11-15T01:55:59.392Z,19.17
2017-11-15T01:58:26.900Z,15.83
2017-11-15T02:01:06.315Z,16.90
2017-11-15T02:03:34.593Z,15.60
2017-11-15T02:06:02.875Z,17.23
2017-11-15T02:08:31.143Z,17.07
2017-11-15T02:10:59.428Z,17.73
2017-11-15T02:13:27.699Z,16.47
2017-11-15T02:15:55.987Z,17.13
2017-11-15T02:18:23.492Z,16.70
2017-11-15T02:20:51.780Z,15.40
2017-11-15T02:23:19.288Z,15.83
2017-11-15T02:25:46.808Z,14.73
2017-11-15T02:28:19.155Z,14.67
2017-11-15T02:30:46.676Z,15.80
2017-11-15T02:33:14.190Z,15.33
2017-11-15T02:35:41.718Z,15.60
2017-11-15T02:38:09.236Z,15.13
2017-11-15T02:40:36.776Z,14.70
2017-11-15T02:43:05.052Z,15.37
2017-11-15T02:45:33.344Z,15.43
2017-11-15T02:48:01.618Z,15.93
2017-11-15T02:50:29.911Z,15.67
2017-11-15T02:52:57.415Z,15.53
2017-11-15T02:55:24.942Z,16.73
2017-11-15T02:57:52.453Z,17.07
2017-11-15T03:00:20.760Z,17.00
2017-11-15T03:02:48.268Z,15.53
2017-11-15T03:05:15.804Z,14.47
2017-11-15T03:07:43.316Z,15.23
2017-11-15T03:10:11.608Z,15.27
2017-11-15T03:12:39.125Z,14.17
2017-11-15T03:15:06.637Z,14.53
2017-11-15T03:17:34.166Z,14.67
2017-11-15T03:20:02.439Z,14.30
2017-11-15T03:22:30.730Z,14.47
2017-11-15T03:24:58.236Z,14.03
2017-11-15T03:27:25.761Z,14.47
2017-11-15T03:29:53.268Z,13.10
2017-11-15T03:32:20.803Z,14.87
2017-11-15T03:34:48.312Z,14.90
2017-11-15T03:37:16.600Z,13.77
2017-11-15T03:39:44.108Z,15.77
2017-11-15T03:42:11.637Z,16.00
2017-11-15T03:44:39.178Z,13.70
2017-11-15T03:47:06.703Z,17.57
2017-11-15T03:49:34.664Z,15.83
2017-11-15T03:52:02.184Z,17.40
2017-11-15T03:54:29.714Z,15.97
2017-11-15T03:56:57.240Z,17.50
2017-11-15T03:59:24.748Z,14.97
2017-11-15T04:01:52.304Z,17.20
2017-11-15T04:04:19.824Z,17.33
2017-11-15T04:06:47.338Z,17.60
2017-11-15T04:09:14.872Z,17.27
2017-11-15T04:11:42.372Z,17.43
2017-11-15T04:14:09.892Z,16.73
2017-11-15T04:16:37.395Z,18.67
2017-11-15T04:19:04.916Z,17.97
2017-11-15T04:21:32.423Z,18.50
2017-11-15T04:23:59.958Z,20.50
2017-11-15T04:26:27.896Z,17.30
2017-11-15T04:28:55.418Z,16.70
2017-11-15T04:31:23.692Z,16.43
2017-11-15T04:33:51.983Z,16.97
2017-11-15T04:36:20.255Z,15.43
2017-11-15T04:38:48.543Z,17.00
2017-11-15T04:41:16.816Z,16.90
2017-11-15T04:43:45.104Z,16.70
2017-11-15T04:46:12.612Z,16.60
2017-11-15T04:48:40.142Z,18.80
2017-11-15T04:51:07.654Z,15.23
2017-11-15T04:53:35.940Z,15.00
2017-11-15T04:56:04.208Z,15.57
2017-11-15T04:58:32.496Z,14.97
2017-11-15T05:01:00.772Z,15.27
2017-11-15T05:03:28.342Z,15.30
2017-11-15T05:05:55.848Z,15.60
2017-11-15T05:08:23.361Z,17.37
2017-11-15T05:10:50.892Z,17.00
2017-11-15T05:13:19.167Z,15.30
2017-11-15T05:15:47.455Z,16.20
2017-11-15T05:18:15.727Z,16.37
2017-11-15T05:20:44.015Z,19.03
2017-11-15T05:23:11.524Z,20.50
2017-11-15T05:25:39.045Z,17.80
2017-11-15T05:28:06.546Z,15.93
2017-11-15T05:30:34.073Z,19.00
2017-11-15T05:33:01.580Z,16.47
2017-11-15T05:35:29.868Z,17.20
2017-11-15T05:37:58.152Z,17.43
2017-11-15T05:40:26.440Z,14.20
2017-11-15T05:42:53.958Z,16.87
2017-11-15T05:45:21.507Z,16.20
2017-11-15T05:47:49.017Z,16.33
2017-11-15T05:50:16.523Z,15.53
2017-11-15T05:52:44.047Z,15.80
2017-11-15T05:55:11.555Z,14.80
2017-11-15T05:57:39.083Z,15.03
2017-11-15T06:00:06.593Z,14.47
2017-11-15T06:02:34.880Z,15.97
2017-11-15T06:05:02.386Z,15.93
2017-11-15T06:07:29.912Z,16.73
2017-11-15T06:09:57.457Z,16.33
2017-11-15T06:12:25.728Z,15.20
2017-11-15T06:14:53.297Z,14.73
2017-11-15T06:17:21.565Z,14.73
2017-11-15T06:19:49.158Z,15.07
2017-11-15T06:22:17.410Z,14.60
2017-11-15T06:24:44.983Z,14.30
2017-11-15T06:27:15.692Z,17.60
2017-11-15T06:29:44.026Z,17.03
2017-11-15T06:32:11.618Z,17.20
2017-11-15T06:34:39.167Z,18.33
2017-11-15T06:37:06.725Z,18.00
2017-11-15T06:39:34.212Z,16.80
2017-11-15T06:42:01.733Z,16.50
2017-11-15T06:47:22.531Z,18.80
2017-11-15T06:49:50.068Z,19.47
2017-11-15T06:52:18.187Z,17.57
2017-11-15T06:54:45.725Z,17.90
2017-11-15T06:57:13.244Z,17.53
2017-11-15T06:59:40.773Z,16.97
2017-11-15T07:02:08.855Z,18.23
2017-11-15T07:04:36.478Z,17.00
2017-11-15T07:07:04.001Z,18.50
2017-11-15T07:09:31.529Z,20.97
2017-11-15T07:11:59.041Z,20.93
2017-11-15T07:14:27.561Z,19.50
2017-11-15T07:16:55.097Z,16.33
2017-11-15T07:19:22.614Z,18.73
2017-11-15T07:21:50.147Z,17.60
2017-11-15T07:24:17.656Z,19.90
2017-11-15T07:26:45.953Z,19.67
2017-11-15T07:29:13.483Z,17.97
2017-11-15T07:31:41.030Z,15.90
2017-11-15T07:34:08.569Z,17.27
2017-11-15T07:36:36.141Z,20.90
2017-11-15T07:39:03.665Z,20.63
2017-11-15T07:41:32.533Z,25.13
2017-11-15T07:44:00.140Z,19.93
2017-11-15T07:46:27.696Z,18.90
2017-11-15T07:48:55.214Z,18.90
2017-11-15T07:51:22.769Z,18.37
2017-11-15T07:53:50.298Z,17.73
2017-11-15T07:56:18.615Z,19.00
2017-11-15T07:58:46.134Z,19.30
2017-11-15T08:01:13.670Z,20.27
2017-11-15T08:03:41.192Z,17.70
2017-11-15T08:06:08.748Z,18.93
2017-11-15T08:08:36.280Z,18.30
2017-11-15T08:11:03.861Z,19.00
2017-11-15T08:13:31.443Z,17.90
2017-11-15T08:15:58.986Z,18.60
2017-11-15T08:18:27.366Z,22.17
2017-11-15T08:20:54.902Z,19.17
2017-11-15T08:23:22.496Z,19.23
2017-11-15T08:25:50.072Z,19.63
2017-11-15T08:28:18.261Z,17.60
2017-11-15T08:30:45.994Z,20.20
2017-11-15T08:33:14.509Z,19.40
2017-11-15T08:35:42.080Z,29.37
2017-11-15T08:38:09.614Z,18.13
2017-11-15T08:40:37.202Z,18.97
2017-11-15T08:43:04.826Z,18.17
2017-11-15T08:45:32.385Z,18.63
2017-11-15T08:47:59.914Z,21.33
2017-11-15T08:50:27.874Z,17.73
2017-11-15T08:52:56.155Z,16.10
2017-11-15T08:55:23.724Z,17.43
2017-11-15T08:57:52.010Z,15.87
2017-11-15T09:00:19.863Z,16.87
2017-11-15T09:02:47.397Z,16.53
2017-11-15T09:05:14.918Z,17.60
2017-11-15T09:07:42.475Z,17.60
2017-11-15T09:10:09.993Z,17.20
2017-11-15T09:12:37.521Z,18.10
2017-11-15T09:15:05.046Z,19.10
2017-11-15T09:17:32.586Z,16.23
2017-11-15T09:20:00.107Z,17.50
2017-11-15T09:22:27.649Z,18.33
2017-11-15T09:24:55.934Z,18.30
2017-11-15T09:27:23.475Z,19.20
2017-11-15T09:29:51.001Z,17.80
2017-11-15T09:32:18.537Z,17.20
2017-11-15T09:34:46.067Z,17.37
2017-11-15T09:37:13.613Z,16.97
2017-11-15T09:39:41.137Z,19.43
2017-11-15T09:42:09.441Z,19.27
2017-11-15T09:44:36.969Z,17.00
2017-11-15T09:47:04.512Z,17.93
2017-11-15T09:49:32.802Z,17.30
2017-11-15T09:52:01.113Z,19.10
2017-11-15T09:54:28.649Z,17.50
2017-11-15T09:56:56.229Z,17.37
2017-11-15T09:59:23.754Z,19.87
2017-11-15T10:01:51.278Z,16.23
2017-11-15T10:04:18.815Z,18.03
2017-11-15T10:06:46.338Z,18.00
2017-11-15T10:09:20.302Z,17.90
2017-11-15T10:11:47.817Z,21.20
2017-11-15T10:14:15.387Z,18.00
2017-11-15T10:16:42.909Z,16.53
2017-11-15T10:19:10.428Z,18.17
2017-11-15T10:21:37.954Z,19.70
2017-11-15T10:24:05.481Z,18.87
2017-11-15T10:26:33.039Z,22.33
2017-11-15T10:29:00.587Z,19.80
2017-11-15T10:31:28.145Z,18.13
2017-11-15T10:34:03.453Z,18.00
2017-11-15T10:36:31.084Z,19.50
2017-11-15T10:38:58.631Z,18.27
2017-11-15T10:41:26.160Z,18.30
2017-11-15T10:43:54.194Z,18.17
2017-11-15T10:46:21.730Z,18.20
2017-11-15T10:48:49.282Z,17.90
2017-11-15T10:51:16.821Z,19.83
2017-11-15T10:53:45.495Z,18.60
2017-11-15T10:56:13.697Z,16.50
2017-11-15T10:58:42.992Z,17.47
2017-11-15T11:01:11.667Z,16.60
2017-11-15T11:03:40.205Z,15.87
2017-11-15T11:06:07.793Z,18.13
2017-11-15T11:08:35.554Z,18.00
2017-11-15T11:11:03.263Z,17.67
2017-11-15T11:13:30.949Z,17.30
2017-11-15T11:15:59.688Z,14.40
2017-11-15T11:18:28.415Z,14.43
2017-11-15T11:20:56.726Z,16.33
2017-11-15T11:23:25.855Z,17.07
2017-11-15T11:28:56.555Z,17.17
2017-11-15T11:31:24.928Z,16.80
2017-11-15T11:33:53.522Z,16.07
2017-11-15T11:36:21.207Z,18.43
2017-11-15T11:38:49.680Z,17.23
2017-11-15T11:41:17.395Z,17.53
2017-11-15T11:43:48.513Z,15.53
2017-11-15T11:46:17.876Z,15.73
2017-11-15T11:48:46.765Z,15.70
2017-11-15T11:51:14.503Z,15.43
2017-11-15T11:53:42.286Z,14.40
2017-11-15T11:56:10.062Z,15.80
2017-11-15T11:58:37.578Z,13.10
2017-11-15T12:01:05.099Z,14.87
2017-11-15T12:03:32.608Z,14.80
2017-11-15T12:06:00.136Z,14.77
2017-11-15T12:08:28.414Z,14.67
2017-11-15T12:10:55.952Z,14.13
2017-11-15T12:13:23.456Z,13.37
2017-11-15T12:15:50.996Z,13.07
2017-11-15T12:18:18.509Z,13.37
2017-11-15T12:20:46.038Z,14.97
2017-11-15T12:23:13.548Z,13.17
2017-11-15T12:25:41.873Z,14.37
2017-11-15T12:28:09.379Z,14.27
2017-11-15T12:30:37.660Z,14.07
2017-11-15T12:33:05.948Z,16.13
2017-11-15T12:35:33.478Z,14.63
2017-11-15T12:38:01.023Z,14.40
2017-11-15T12:40:28.533Z,15.97
2017-11-15T12:42:56.057Z,12.80
2017-11-15T12:45:23.573Z,13.77
2017-11-15T12:47:51.092Z,13.10
2017-11-15T12:50:19.368Z,13.10
2017-11-15T12:52:47.664Z,13.30
2017-11-15T12:55:15.177Z,13.13
2017-11-15T12:57:42.708Z,13.70
2017-11-15T13:00:10.265Z,12.80
2017-11-15T13:02:37.796Z,11.10
2017-11-15T13:05:05.303Z,13.70
2017-11-15T13:07:32.857Z,13.13
2017-11-15T13:10:00.376Z,13.00
2017-11-15T13:12:27.896Z,14.33
2017-11-15T13:14:56.200Z,14.27
2017-11-15T13:17:23.705Z,14.77
2017-11-15T13:19:51.229Z,13.70
2017-11-15T13:22:18.744Z,15.23
2017-11-15T13:24:47.045Z,13.40
2017-11-15T13:27:15.316Z,13.37
2017-11-15T13:29:43.616Z,12.97
2017-11-15T13:32:11.124Z,12.57
2017-11-15T13:34:38.677Z,12.27
2017-11-15T13:37:06.221Z,12.97
2017-11-15T13:39:33.733Z,13.80
2017-11-15T13:42:02.025Z,12.80
2017-11-15T13:44:29.536Z,13.50
2017-11-15T13:46:57.065Z,12.20
2017-11-15T13:49:24.575Z,13.00
2017-11-15T13:51:52.871Z,12.67
2017-11-15T13:54:21.214Z,12.17
2017-11-15T13:56:48.765Z,11.07
2017-11-15T13:59:16.277Z,11.93
2017-11-15T14:01:43.792Z,13.70
2017-11-15T14:04:11.315Z,13.47
2017-11-15T14:06:38.825Z,11.53
2017-11-15T14:09:07.127Z,13.17
2017-11-15T14:11:34.669Z,13.13
2017-11-15T14:14:02.196Z,12.60
2017-11-15T14:16:29.705Z,14.37
2017-11-15T14:18:57.229Z,14.40
2017-11-15T14:21:25.500Z,15.00
2017-11-15T14:23:53.834Z,15.10
2017-11-15T14:26:22.100Z,13.67
2017-11-15T14:28:49.616Z,12.70
2017-11-15T14:31:17.913Z,13.10
2017-11-15T14:33:45.425Z,14.07
2017-11-15T14:36:12.950Z,13.67
2017-11-15T14:38:40.452Z,13.67
2017-11-15T14:41:07.978Z,14.07
2017-11-15T14:43:35.488Z,11.00
2017-11-15T14:46:03.776Z,13.10
2017-11-15T14:48:31.298Z,12.63
2017-11-15T14:50:58.845Z,11.37
2017-11-15T14:53:26.347Z,14.90
2017-11-15T14:55:53.848Z,12.77
2017-11-15T14:58:22.135Z,13.70
2017-11-15T15:00:49.640Z,12.80
2017-11-15T15:03:17.166Z,14.10
2017-11-15T15:05:44.668Z,13.20
2017-11-15T15:08:12.196Z,13.20
2017-11-15T15:10:40.469Z,13.70
2017-11-15T15:13:08.755Z,12.40
2017-11-15T15:15:37.028Z,13.90
2017-11-15T15:18:05.336Z,13.40
2017-11-15T15:20:32.841Z,13.43
2017-11-15T15:23:00.353Z,12.97
2017-11-15T15:25:27.876Z,14.70
2017-11-15T15:27:56.149Z,14.80
2017-11-15T15:30:24.442Z,13.20
2017-11-15T15:32:51.949Z,15.07
2017-11-15T15:35:19.478Z,14.10
2017-11-15T15:37:46.976Z,15.53
2017-11-15T15:40:14.526Z,16.70
2017-11-15T15:42:42.034Z,23.23
2017-11-15T15:45:09.536Z,28.07
2017-11-15T15:47:37.060Z,25.80
2017-11-15T15:50:04.564Z,26.33
2017-11-15T15:52:32.088Z,27.47
2017-11-15T15:54:59.597Z,28.57
2017-11-15T15:57:27.123Z,29.30
2017-11-15T15:59:54.633Z,31.60
2017-11-15T16:02:22.184Z,29.10
2017-11-15T16:04:50.462Z,30.53
2017-11-15T16:07:18.728Z,27.27
2017-11-15T16:09:47.021Z,31.53
2017-11-15T16:12:14.529Z,27.27
2017-11-15T16:14:42.063Z,30.13
2017-11-15T16:17:09.587Z,30.83
2017-11-15T16:19:37.873Z,26.90
2017-11-15T16:22:06.140Z,28.13
2017-11-15T16:24:34.428Z,28.20
2017-11-15T16:27:01.941Z,30.37
2017-11-15T16:29:29.476Z,30.10
2017-11-15T16:31:56.996Z,31.50
2017-11-15T16:34:25.264Z,26.80
2017-11-15T16:36:53.556Z,29.77
2017-11-15T16:39:21.060Z,30.00
2017-11-15T16:41:48.588Z,31.57
2017-11-15T16:44:16.088Z,31.83
2017-11-15T16:46:43.611Z,28.77
2017-11-15T16:49:11.116Z,29.37
2017-11-15T16:51:38.639Z,30.43
2017-11-15T16:54:06.148Z,29.87
2017-11-15T16:56:34.456Z,30.07
2017-11-15T16:59:01.961Z,31.83
2017-11-15T17:01:29.473Z,29.40
2017-11-15T17:03:56.997Z,29.37
2017-11-15T17:06:25.275Z,31.67
2017-11-15T17:08:53.564Z,31.10
2017-11-15T17:11:21.077Z,32.27
2017-11-15T17:13:48.592Z,32.23
2017-11-15T17:16:16.104Z,29.57
2017-11-15T17:18:43.657Z,32.67
2017-11-15T17:21:11.163Z,30.50
2017-11-15T17:23:38.672Z,31.60
2017-11-15T17:26:06.200Z,30.40
2017-11-15T17:28:33.710Z,30.63
2017-11-15T17:31:02.000Z,30.73
2017-11-15T17:33:30.271Z,32.40
2017-11-15T17:35:58.559Z,29.60
2017-11-15T17:38:26.077Z,30.23
2017-11-15T17:40:53.604Z,33.43
2017-11-15T17:43:21.105Z,29.87
2017-11-15T17:45:48.632Z,30.83
2017-11-15T17:48:16.144Z,30.90
2017-11-15T17:50:43.705Z,30.10
2017-11-15T17:53:11.207Z,32.23
2017-11-15T17:55:38.733Z,30.80
2017-11-15T17:58:06.241Z,30.97
2017-11-15T18:00:33.765Z,29.90
2017-11-15T18:03:01.285Z,29.53
2017-11-15T18:05:28.816Z,32.17
2017-11-15T18:07:56.345Z,30.50
2017-11-15T18:10:23.890Z,31.80
2017-11-15T18:12:51.402Z,30.10
2017-11-15T18:15:18.917Z,29.50
2017-11-15T18:17:46.444Z,30.90
2017-11-15T18:20:13.953Z,33.87
2017-11-15T18:22:42.240Z,32.83
2017-11-15T18:25:09.752Z,36.03
2017-11-15T18:27:37.716Z,35.17
2017-11-15T18:30:05.228Z,33.97
2017-11-15T18:32:32.752Z,35.20
2017-11-15T18:35:00.263Z,32.37
2017-11-15T18:37:28.557Z,33.37
2017-11-15T18:39:56.832Z,33.40
2017-11-15T18:42:24.364Z,34.43
2017-11-15T18:44:51.872Z,35.07
2017-11-15T18:47:19.403Z,31.10
2017-11-15T18:49:47.682Z,33.77
2017-11-15T18:52:15.988Z,34.47
2017-11-15T18:54:43.496Z,34.80
2017-11-15T18:57:11.959Z,35.00
2017-11-15T18:59:39.492Z,33.73
2017-11-15T19:02:07.016Z,34.00
2017-11-15T19:04:34.532Z,36.80
2017-11-15T19:07:02.061Z,35.67
2017-11-15T19:09:29.601Z,35.40
2017-11-15T19:11:57.112Z,36.50
2017-11-15T19:14:24.635Z,38.70
2017-11-15T19:16:52.157Z,34.67
2017-11-15T19:19:20.564Z,33.97
2017-11-15T19:21:48.095Z,32.53
2017-11-15T19:24:16.388Z,31.10
2017-11-15T19:26:43.914Z,31.77
2017-11-15T19:29:11.435Z,31.47
2017-11-15T19:31:38.943Z,32.30
2017-11-15T19:34:07.232Z,28.60
2017-11-15T19:36:34.748Z,32.70
2017-11-15T19:39:02.272Z,29.20
2017-11-15T19:41:29.783Z,32.80
2017-11-15T19:43:57.306Z,30.60
2017-11-15T19:46:24.817Z,32.27
2017-11-15T19:48:53.105Z,31.40
2017-11-15T19:51:20.629Z,35.77
2017-11-15T19:53:48.152Z,32.77
2017-11-15T19:56:15.659Z,33.43
2017-11-15T19:58:44.264Z,31.50
2017-11-15T20:01:11.776Z,31.80
2017-11-15T20:03:39.308Z,33.40
2017-11-15T20:06:06.813Z,32.47
2017-11-15T20:08:35.083Z,33.90
2017-11-15T20:11:03.377Z,34.43
2017-11-15T20:13:30.895Z,33.03
2017-11-15T20:15:58.420Z,34.50
2017-11-15T20:18:25.932Z,34.77
2017-11-15T20:20:54.232Z,36.37
2017-11-15T20:23:21.740Z,35.00
2017-11-15T20:25:49.273Z,33.27
2017-11-15T20:28:16.779Z,36.17
2017-11-15T20:30:44.304Z,33.13
2017-11-15T20:33:11.904Z,33.80
2017-11-15T20:35:40.200Z,32.80
2017-11-15T20:38:08.471Z,31.67
2017-11-15T20:40:36.759Z,33.60
2017-11-15T20:43:04.267Z,31.53
2017-11-15T20:45:31.793Z,34.67
2017-11-15T20:47:59.295Z,29.80
2017-11-15T20:50:26.817Z,30.17
2017-11-15T20:52:54.323Z,31.23
2017-11-15T20:55:22.616Z,29.80
2017-11-15T20:57:50.883Z,33.27
2017-11-15T21:00:19.168Z,31.33
2017-11-15T21:02:47.449Z,29.73
2017-11-15T21:05:15.003Z,28.80
2017-11-15T21:07:43.271Z,29.90
2017-11-15T21:10:11.547Z,32.00
2017-11-15T21:12:39.836Z,33.40
2017-11-15T21:15:07.344Z,27.90
2017-11-15T21:17:34.864Z,26.53
2017-11-15T21:20:02.380Z,28.30
2017-11-15T21:22:29.909Z,29.07
2017-11-15T21:24:57.417Z,30.40
2017-11-15T21:27:24.956Z,28.60
2017-11-15T21:29:52.460Z,29.57
2017-11-15T21:32:19.988Z,31.90
2017-11-15T21:34:48.264Z,30.60
2017-11-15T21:37:16.559Z,30.90
2017-11-15T21:39:44.068Z,31.20
2017-11-15T21:42:11.597Z,28.57
2017-11-15T21:44:39.180Z,30.23
2017-11-15T21:47:06.704Z,30.30
2017-11-15T21:49:34.207Z,29.97
2017-11-15T21:52:01.731Z,26.97
2017-11-15T21:54:29.239Z,30.40
2017-11-15T21:56:56.758Z,28.97
2017-11-15T21:59:24.272Z,27.83
2017-11-15T22:01:52.591Z,28.43
2017-11-15T22:04:20.087Z,30.40
2017-11-15T22:06:47.599Z,29.73
2017-11-15T22:09:15.124Z,31.07
2017-11-15T22:11:43.402Z,28.03
2017-11-15T22:14:11.692Z,29.80
2017-11-15T22:16:39.199Z,29.10
2017-11-15T22:19:06.731Z,31.00
2017-11-15T22:21:34.245Z,29.80
2017-11-15T22:24:02.528Z,30.47
2017-11-15T22:26:30.805Z,30.97
2017-11-15T22:28:58.327Z,33.23
2017-11-15T22:31:25.833Z,30.23
2017-11-15T22:33:53.355Z,28.47
2017-11-15T22:36:20.857Z,28.47
2017-11-15T22:38:48.381Z,30.37
2017-11-15T22:41:16.656Z,27.43
2017-11-15T22:43:44.948Z,28.57
2017-11-15T22:46:12.455Z,28.93
2017-11-15T22:48:39.975Z,27.83
2017-11-15T22:51:07.488Z,27.70
2017-11-15T22:53:35.013Z,28.20
2017-11-15T22:56:02.520Z,31.40
2017-11-15T22:58:30.812Z,32.43
2017-11-15T23:00:59.084Z,28.07
2017-11-15T23:03:27.385Z,29.07
2017-11-15T23:05:54.887Z,28.23
2017-11-15T23:08:22.441Z,29.53
2017-11-15T23:10:49.958Z,29.30
2017-11-15T23:13:17.464Z,28.77
2017-11-15T23:15:44.995Z,28.90
2017-11-15T23:18:12.499Z,28.20
2017-11-15T23:20:40.788Z,33.40
2017-11-15T23:23:09.064Z,29.07
2017-11-15T23:25:36.593Z,30.67
2017-11-15T23:28:04.104Z,27.10
2017-11-15T23:30:31.633Z,28.13
2017-11-15T23:32:59.149Z,26.17
2017-11-15T23:35:26.689Z,27.97
2017-11-15T23:37:54.209Z,29.13
2017-11-15T23:42:55.438Z,31.03
2017-11-15T23:45:22.969Z,28.77
2017-11-15T23:47:50.480Z,30.23
2017-11-15T23:50:18.777Z,28.57
2017-11-15T23:52:46.289Z,33.87
2017-11-15T23:55:13.821Z,31.87
2017-11-15T23:57:41.335Z,29.33
